Tucson, AZ

5:07 PM MST on August 04, 2015 (GMT -0700)
El Gheko | | Change Station
CLOSE
Current Station
Personal Weather Station
Location: Tucson, AZ
Elevation: 2598 ft
Nearby Weather Stations

Elev 2598 ft 32.23 °N, 110.84 °W | Updated 22 seconds ago

Clear
Clear
103.7 °F
Feels Like 99 °F
N
6.0
Wind Variable Wind from NNW
Gusts 13.0 mph

Today
High -- | Low -- °F
--% Chance of Precip.
Yesterday
High -- | Low -- °F
Precip. -- in
5:40 AM 7:18 PM
Waning Gibbous, 73% visible
Pressure 29.75 in
Visibility 10.0 miles
Clouds Clear
Heat Index 99 °F
Dew Point 43 °F
Humidity 13%
Rainfall 0.00 in
Snow Depth Not available.
UV 0.0 out of 12
Pollen 5.30 out of 12
Air Quality Not available.
Flu Activity Not available.
METAR KDMA 042358Z AUTO 36009G14KT 10SM CLR 39/09 A2990 RMK AO2 SLP074 T03920085 10399 20346 57018 $

More Conditions Fewer Conditions

Pressure 29.75 in
Visibility 10.0 miles
Clouds Clear
Heat Index 99 °F
Dew Point 43 °F
Humidity 13%
Rainfall 0.00 in
Snow Depth Not available.
UV 0.0 out of 12
Pollen 5.30 out of 12
Air Quality Not available.
Flu Activity Not available.
METAR KDMA 042358Z AUTO 36009G14KT 10SM CLR 39/09 A2990 RMK AO2 SLP074 T03920085 10399 20346 57018 $

More Conditions Fewer Conditions

10-Day Weather Forecast

×

Almanac

Astronomy

Aug. 04, 2015 Rise Set
Actual Time
Civil Twilight
Nautical Twilight
Astronomical Twilight
Moon
Length of Visible Light
Length of Day
Tomorrow will be .
, % of the Moon is Illuminated

Today's Extremes

State Highs State Lows

Community

WunderPhotos

Upload Photos

1,844,024 photos uploaded!

WunderBlogs® & News

Nearby

Air Quality

  Air Quality AQ Index Pollutant
Not available.

Snow Depth

Station Depth Elevation

Earthquake Activity

City Distance Mag. Time & Date
Minimum magnitude displayed is 2.5.

Coastal Water Temperatures

Place Temperature

Stations

Nearby Weather Stations

Station Location Temp. Windchill Dew Point Humidity Wind Precip. Elev Updated Type